Time;durP1;ratioP1;P1;durP2;ratioP2;P2;SDS_P1;SDS_P2;PMS_P1;PMS_P2;Temp;Humidity;BMP_temperature;BMP_pressure;BME280_temperature;BME280_humidity;BME280_pressure;Samples;Min_cycle;Max_cycle;Signal;HPM_P1;HPM_P2
2022/05/25 00:00:38;;;;;;;;;;;;;;;;;;5073328;28;19917;-76
2022/05/25 00:03:24;;;;;;;;;;;;;;;;;;5073009;28;19923;-72
2022/05/25 00:06:09;;;;;;;;;;;;;;;;;;5072924;28;19917;-72
2022/05/25 00:08:55;;;;;;;;;;;;;;;;;;5079989;28;19917;-72
2022/05/25 00:11:40;;;;;;;;;;;;;;;;;;5072254;28;20120;-72
2022/05/25 00:14:26;;;;;;;;;;;;;;;;;;5072846;28;19924;-71
2022/05/25 00:17:12;;;;;;;;;;;;;;;;;;5085710;28;20337;-69
2022/05/25 00:20:00;;;;;;;;;;;;;;;;;;5092476;28;19931;-62
2022/05/25 00:22:46;;;;;;;;;;;;;;;;;;5091471;28;19916;-63
2022/05/25 00:25:33;;;;;;;;;;;;;;;;;;5091203;28;19935;-63
2022/05/25 00:28:18;;;;;;;;;;;;;;;;;;5092982;28;19924;-64
2022/05/25 00:31:04;;;;;;;;;;;;;;;;;;5092175;28;19916;-63
2022/05/25 00:33:49;;;;;;;;;;;;;;;;;;5091018;28;19971;-63
2022/05/25 00:36:34;;;;;;;;;;;;;;;;;;5091066;28;20274;-72
2022/05/25 00:39:23;;;;;;;;;;;;;;;;;;5094779;28;19937;-69
2022/05/25 00:42:09;;;;;;;;;;;;;;;;;;5078921;28;19916;-69
2022/05/25 00:44:55;;;;;;;;;;;;;;;;;;5074745;28;19916;-68
2022/05/25 00:47:40;;;;;;;;;;;;;;;;;;5056766;28;19917;-69
2022/05/25 00:50:26;;;;;;;;;;;;;;;;;;5072580;28;19923;-70
2022/05/25 00:53:11;;;;;;;;;;;;;;;;;;5071923;28;19948;-70
2022/05/25 00:55:56;;;;;;;;;;;;;;;;;;5072360;28;19917;-69
2022/05/25 00:58:42;;;;;;;;;;;;;;;;;;5071605;28;20420;-78
2022/05/25 01:01:27;;;;;;;;;;;;;;;;;;5072549;28;19917;-77
2022/05/25 01:04:13;;;;;;;;;;;;;;;;;;5071723;28;20244;-78
2022/05/25 01:06:58;;;;;;;;;;;;;;;;;;5072346;28;19925;-77
2022/05/25 01:09:44;;;;;;;;;;;;;;;;;;5071983;28;19966;-78
2022/05/25 01:12:29;;;;;;;;;;;;;;;;;;5080353;28;20470;-73
2022/05/25 01:15:15;;;;;;;;;;;;;;;;;;5070797;28;19927;-63
2022/05/25 01:18:01;;;;;;;;;;;;;;;;;;5051646;28;19921;-64
2022/05/25 01:20:46;;;;;;;;;;;;;;;;;;5050468;28;19923;-64
2022/05/25 01:23:32;;;;;;;;;;;;;;;;;;5051396;28;19921;-63
2022/05/25 01:26:17;;;;;;;;;;;;;;;;;;5050499;28;19917;-63
2022/05/25 01:29:03;;;;;;;;;;;;;;;;;;5050741;28;19917;-64
2022/05/25 01:31:48;;;;;;;;;;;;;;;;;;5051684;28;19924;-69
2022/05/25 01:34:34;;;;;;;;;;;;;;;;;;5054232;28;19965;-63
2022/05/25 01:37:19;;;;;;;;;;;;;;;;;;5044311;28;19924;-63
2022/05/25 01:40:04;;;;;;;;;;;;;;;;;;5054495;28;19979;-63
2022/05/25 01:42:50;;;;;;;;;;;;;;;;;;5053460;28;19982;-64
2022/05/25 01:45:35;;;;;;;;;;;;;;;;;;5066146;28;19939;-61
2022/05/25 01:48:21;;;;;;;;;;;;;;;;;;5075063;28;19932;-61
2022/05/25 01:51:06;;;;;;;;;;;;;;;;;;5074813;28;19917;-69
2022/05/25 01:53:52;;;;;;;;;;;;;;;;;;5074957;28;19920;-65
2022/05/25 01:56:37;;;;;;;;;;;;;;;;;;5075205;28;20347;-64
2022/05/25 01:59:23;;;;;;;;;;;;;;;;;;5075154;28;19960;-66
2022/05/25 02:05:12;;;;;;;;;;;;;;;;;;5074618;28;19980;-65
2022/05/25 02:07:58;;;;;;;;;;;;;;;;;;5074547;28;19916;-66
2022/05/25 02:10:43;;;;;;;;;;;;;;;;;;5072111;28;19927;-66
2022/05/25 02:13:29;;;;;;;;;;;;;;;;;;5052664;28;20240;-66
2022/05/25 02:16:16;;;;;;;;;;;;;;;;;;5075604;28;19923;-65
2022/05/25 02:19:02;;;;;;;;;;;;;;;;;;5073592;28;20411;-65
2022/05/25 02:21:47;;;;;;;;;;;;;;;;;;5073737;28;20266;-66
2022/05/25 02:24:33;;;;;;;;;;;;;;;;;;5074473;28;19996;-66
2022/05/25 02:27:18;;;;;;;;;;;;;;;;;;5074673;28;19917;-71
2022/05/25 02:30:04;;;;;;;;;;;;;;;;;;5072366;28;19923;-63
2022/05/25 02:32:49;;;;;;;;;;;;;;;;;;5074491;28;20339;-61
2022/05/25 02:35:35;;;;;;;;;;;;;;;;;;5058751;28;20472;-60
2022/05/25 02:38:20;;;;;;;;;;;;;;;;;;5074778;28;19920;-64
2022/05/25 02:41:06;;;;;;;;;;;;;;;;;;5073695;28;20007;-62
2022/05/25 02:43:51;;;;;;;;;;;;;;;;;;5074183;28;19923;-68
2022/05/25 02:46:37;;;;;;;;;;;;;;;;;;5075241;28;19916;-68
2022/05/25 02:49:23;;;;;;;;;;;;;;;;;;5064663;28;19924;-73
2022/05/25 02:52:08;;;;;;;;;;;;;;;;;;5073699;28;20359;-72
2022/05/25 02:54:54;;;;;;;;;;;;;;;;;;5058449;28;19916;-71
2022/05/25 02:57:39;;;;;;;;;;;;;;;;;;5074259;28;19920;-72
2022/05/25 03:00:25;;;;;;;;;;;;;;;;;;5066966;28;19916;-74
2022/05/25 03:03:12;;;;;;;;;;;;;;;;;;5054431;28;19921;-67
2022/05/25 03:05:57;;;;;;;;;;;;;;;;;;5051346;28;19983;-69
2022/05/25 03:08:43;;;;;;;;;;;;;;;;;;5051491;28;19917;-70
2022/05/25 03:11:28;;;;;;;;;;;;;;;;;;5051434;28;19925;-70
2022/05/25 03:14:14;;;;;;;;;;;;;;;;;;5052897;28;19921;-70
2022/05/25 03:17:05;;;;;;;;;;;;;;;;;;5083713;28;19927;-70
2022/05/25 03:19:50;;;;;;;;;;;;;;;;;;5100228;28;19991;-69
2022/05/25 03:22:37;;;;;;;;;;;;;;;;;;5092609;28;20245;-70
2022/05/25 03:25:23;;;;;;;;;;;;;;;;;;5093739;28;19916;-70
2022/05/25 03:28:08;;;;;;;;;;;;;;;;;;5092194;28;19956;-69
2022/05/25 03:30:54;;;;;;;;;;;;;;;;;;5091935;28;19916;-70
2022/05/25 03:33:39;;;;;;;;;;;;;;;;;;5092149;28;20374;-70
2022/05/25 03:36:25;;;;;;;;;;;;;;;;;;5083555;28;19920;-69
2022/05/25 03:39:10;;;;;;;;;;;;;;;;;;5107107;28;19923;-73
2022/05/25 03:41:56;;;;;;;;;;;;;;;;;;5113331;28;19923;-70
2022/05/25 03:44:41;;;;;;;;;;;;;;;;;;5112769;28;19969;-68
2022/05/25 03:47:27;;;;;;;;;;;;;;;;;;5071685;28;19920;-67
2022/05/25 03:50:12;;;;;;;;;;;;;;;;;;5071239;28;20386;-68
2022/05/25 03:52:58;;;;;;;;;;;;;;;;;;5078343;28;20004;-66
2022/05/25 03:55:43;;;;;;;;;;;;;;;;;;5070766;28;19923;-67
2022/05/25 03:58:28;;;;;;;;;;;;;;;;;;5071704;28;19924;-64
2022/05/25 04:01:14;;;;;;;;;;;;;;;;;;5071111;28;20007;-62
2022/05/25 04:04:00;;;;;;;;;;;;;;;;;;5071416;28;20384;-64
2022/05/25 04:06:45;;;;;;;;;;;;;;;;;;5069918;28;19955;-62
2022/05/25 04:09:31;;;;;;;;;;;;;;;;;;5071308;28;20279;-61
2022/05/25 04:12:16;;;;;;;;;;;;;;;;;;5069762;28;19965;-62
2022/05/25 04:15:01;;;;;;;;;;;;;;;;;;5073468;28;19924;-62
2022/05/25 04:17:47;;;;;;;;;;;;;;;;;;5111333;28;19916;-68
2022/05/25 04:20:32;;;;;;;;;;;;;;;;;;5098036;28;19924;-62
2022/05/25 04:23:20;;;;;;;;;;;;;;;;;;5116257;28;20147;-63
2022/05/25 04:26:05;;;;;;;;;;;;;;;;;;5114231;28;19923;-62
2022/05/25 04:28:51;;;;;;;;;;;;;;;;;;5112206;28;20368;-62
2022/05/25 04:31:36;;;;;;;;;;;;;;;;;;5111863;28;19916;-64
2022/05/25 04:34:22;;;;;;;;;;;;;;;;;;5111827;28;19915;-65
2022/05/25 04:40:11;;;;;;;;;;;;;;;;;;5111984;28;20470;-65
2022/05/25 04:42:57;;;;;;;;;;;;;;;;;;5111618;28;19916;-65
2022/05/25 04:45:42;;;;;;;;;;;;;;;;;;5103810;28;19923;-65
2022/05/25 04:48:28;;;;;;;;;;;;;;;;;;5091855;28;20243;-65
2022/05/25 04:51:14;;;;;;;;;;;;;;;;;;5092151;28;19920;-65
2022/05/25 04:54:00;;;;;;;;;;;;;;;;;;5091267;28;19969;-69
2022/05/25 04:59:49;;;;;;;;;;;;;;;;;;5092363;28;19916;-63
2022/05/25 05:02:35;;;;;;;;;;;;;;;;;;5092031;28;19912;-62
2022/05/25 05:05:20;;;;;;;;;;;;;;;;;;5092927;28;19916;-62
2022/05/25 05:08:07;;;;;;;;;;;;;;;;;;5096033;28;20363;-62
2022/05/25 05:10:52;;;;;;;;;;;;;;;;;;5094601;28;19920;-63
2022/05/25 05:13:37;;;;;;;;;;;;;;;;;;5080602;28;20317;-66
2022/05/25 05:16:23;;;;;;;;;;;;;;;;;;5079915;28;19916;-65
2022/05/25 05:19:08;;;;;;;;;;;;;;;;;;5094914;28;19916;-65
2022/05/25 05:21:54;;;;;;;;;;;;;;;;;;5095147;28;19977;-65
2022/05/25 05:24:40;;;;;;;;;;;;;;;;;;5095123;28;19916;-65
2022/05/25 05:27:26;;;;;;;;;;;;;;;;;;5099655;28;19953;-65
2022/05/25 05:30:11;;;;;;;;;;;;;;;;;;5097188;28;19923;-71
2022/05/25 05:32:57;;;;;;;;;;;;;;;;;;5095405;28;20247;-68
2022/05/25 05:35:42;;;;;;;;;;;;;;;;;;5094742;28;20277;-68
2022/05/25 05:38:28;;;;;;;;;;;;;;;;;;5094818;28;20349;-68
2022/05/25 05:41:13;;;;;;;;;;;;;;;;;;5094978;28;20007;-69
2022/05/25 05:43:59;;;;;;;;;;;;;;;;;;5080642;28;19962;-69
2022/05/25 05:46:44;;;;;;;;;;;;;;;;;;5094506;28;19916;-69
2022/05/25 05:49:30;;;;;;;;;;;;;;;;;;5095096;28;19916;-68
2022/05/25 05:52:15;;;;;;;;;;;;;;;;;;5095236;28;19966;-69
2022/05/25 05:55:01;;;;;;;;;;;;;;;;;;5093887;28;19970;-69
2022/05/25 05:57:46;;;;;;;;;;;;;;;;;;5079602;28;19920;-69
2022/05/25 06:00:32;;;;;;;;;;;;;;;;;;5087438;28;20010;-69
2022/05/25 06:03:17;;;;;;;;;;;;;;;;;;5094756;28;19921;-68
2022/05/25 06:06:03;;;;;;;;;;;;;;;;;;5093623;28;19923;-69
2022/05/25 06:08:49;;;;;;;;;;;;;;;;;;5079249;28;20391;-75
2022/05/25 06:11:34;;;;;;;;;;;;;;;;;;5094609;28;19923;-67
2022/05/25 06:14:20;;;;;;;;;;;;;;;;;;5094409;28;20015;-66
2022/05/25 06:20:09;;;;;;;;;;;;;;;;;;5114593;28;20355;-68
2022/05/25 06:22:55;;;;;;;;;;;;;;;;;;5114094;28;19916;-67
2022/05/25 06:25:40;;;;;;;;;;;;;;;;;;5100021;28;19919;-76
2022/05/25 06:28:26;;;;;;;;;;;;;;;;;;5114432;28;19945;-66
2022/05/25 06:31:11;;;;;;;;;;;;;;;;;;5118228;28;20202;-65
2022/05/25 06:33:57;;;;;;;;;;;;;;;;;;5117018;28;19916;-66
2022/05/25 06:36:42;;;;;;;;;;;;;;;;;;5114282;28;19924;-66
2022/05/25 06:39:28;;;;;;;;;;;;;;;;;;5113822;28;20355;-67
2022/05/25 06:42:13;;;;;;;;;;;;;;;;;;5113713;28;19945;-66
2022/05/25 06:44:58;;;;;;;;;;;;;;;;;;5097528;28;19959;-75
2022/05/25 06:47:44;;;;;;;;;;;;;;;;;;5093884;28;20346;-63
2022/05/25 06:50:29;;;;;;;;;;;;;;;;;;5093926;28;19912;-62
2022/05/25 06:53:15;;;;;;;;;;;;;;;;;;5093926;28;19970;-63
2022/05/25 06:56:00;;;;;;;;;;;;;;;;;;5078645;28;19943;-62
2022/05/25 06:58:46;;;;;;;;;;;;;;;;;;5093869;28;20278;-64
2022/05/25 07:01:31;;;;;;;;;;;;;;;;;;5093575;28;19916;-76
2022/05/25 07:04:17;;;;;;;;;;;;;;;;;;5101671;28;19908;-69
2022/05/25 07:07:02;;;;;;;;;;;;;;;;;;5093684;28;19927;-62
2022/05/25 07:09:48;;;;;;;;;;;;;;;;;;5078324;28;19916;-65
2022/05/25 07:12:33;;;;;;;;;;;;;;;;;;5093449;28;19916;-62
2022/05/25 07:15:19;;;;;;;;;;;;;;;;;;5093262;28;19912;-62
2022/05/25 07:18:04;;;;;;;;;;;;;;;;;;5073211;28;20393;-62
2022/05/25 07:20:49;;;;;;;;;;;;;;;;;;5072864;28;19916;-67
2022/05/25 07:23:35;;;;;;;;;;;;;;;;;;5072517;28;19916;-68
2022/05/25 07:26:21;;;;;;;;;;;;;;;;;;5072644;28;19923;-67
2022/05/25 07:29:07;;;;;;;;;;;;;;;;;;5071944;28;19974;-67
2022/05/25 07:31:55;;;;;;;;;;;;;;;;;;5072404;28;19923;-67
2022/05/25 07:34:41;;;;;;;;;;;;;;;;;;5074100;28;20080;-66
2022/05/25 07:37:26;;;;;;;;;;;;;;;;;;5077018;28;19921;-69
2022/05/25 07:40:12;;;;;;;;;;;;;;;;;;5071563;28;19917;-68
2022/05/25 07:42:57;;;;;;;;;;;;;;;;;;5071748;28;19916;-63
2022/05/25 07:45:43;;;;;;;;;;;;;;;;;;5080536;28;19981;-63
2022/05/25 07:48:28;;;;;;;;;;;;;;;;;;5077801;28;20297;-64
2022/05/25 07:51:13;;;;;;;;;;;;;;;;;;5092756;28;19916;-63
2022/05/25 07:53:59;;;;;;;;;;;;;;;;;;5093146;28;19978;-63
2022/05/25 07:56:44;;;;;;;;;;;;;;;;;;5092772;28;19920;-70
2022/05/25 07:59:32;;;;;;;;;;;;;;;;;;5092346;28;20231;-69
2022/05/25 08:08:26;;;;;;;;;;;;;;;;;;5100833;28;19924;-74
2022/05/25 08:11:11;;;;;;;;;;;;;;;;;;5077600;28;20370;-74
2022/05/25 08:13:57;;;;;;;;;;;;;;;;;;5092672;28;19920;-75
2022/05/25 08:16:42;;;;;;;;;;;;;;;;;;5077036;28;19924;-67
2022/05/25 08:19:28;;;;;;;;;;;;;;;;;;5078097;28;19916;-68
2022/05/25 08:22:13;;;;;;;;;;;;;;;;;;5091982;28;20367;-67
2022/05/25 08:24:59;;;;;;;;;;;;;;;;;;5091977;28;20365;-68
2022/05/25 08:27:45;;;;;;;;;;;;;;;;;;5092124;28;19919;-66
2022/05/25 08:30:30;;;;;;;;;;;;;;;;;;5091936;28;20366;-68
2022/05/25 08:33:15;;;;;;;;;;;;;;;;;;5077706;28;19916;-68
2022/05/25 08:36:01;;;;;;;;;;;;;;;;;;5091662;28;19916;-68
2022/05/25 08:38:46;;;;;;;;;;;;;;;;;;5094427;28;19918;-66
2022/05/25 08:41:32;;;;;;;;;;;;;;;;;;5098852;28;19920;-66
2022/05/25 08:44:19;;;;;;;;;;;;;;;;;;5081832;28;19916;-66
2022/05/25 08:47:05;;;;;;;;;;;;;;;;;;5095842;28;19917;-66
2022/05/25 08:49:51;;;;;;;;;;;;;;;;;;5095325;28;19916;-66
2022/05/25 08:52:37;;;;;;;;;;;;;;;;;;5095252;28;19924;-65
2022/05/25 08:55:22;;;;;;;;;;;;;;;;;;5081116;28;19959;-66
2022/05/25 08:58:08;;;;;;;;;;;;;;;;;;5080208;28;19920;-66
2022/05/25 09:00:53;;;;;;;;;;;;;;;;;;5096204;28;19916;-66
2022/05/25 09:03:39;;;;;;;;;;;;;;;;;;5095952;28;19916;-66
2022/05/25 09:06:24;;;;;;;;;;;;;;;;;;5096139;28;19939;-65
2022/05/25 09:09:10;;;;;;;;;;;;;;;;;;5095712;28;19961;-65
2022/05/25 09:11:55;;;;;;;;;;;;;;;;;;5103119;28;19927;-68
2022/05/25 09:14:40;;;;;;;;;;;;;;;;;;5095753;28;19938;-77
2022/05/25 09:17:26;;;;;;;;;;;;;;;;;;5112308;28;19920;-77
2022/05/25 09:20:14;;;;;;;;;;;;;;;;;;5115904;28;19923;-77
2022/05/25 09:23:00;;;;;;;;;;;;;;;;;;5115185;28;19919;-76
2022/05/25 09:25:46;;;;;;;;;;;;;;;;;;5115497;28;19912;-76
2022/05/25 09:28:32;;;;;;;;;;;;;;;;;;5115482;28;19972;-77
2022/05/25 09:31:17;;;;;;;;;;;;;;;;;;5115519;28;19916;-67
2022/05/25 09:34:03;;;;;;;;;;;;;;;;;;5115282;28;19922;-66
2022/05/25 09:36:49;;;;;;;;;;;;;;;;;;5115201;28;19935;-66
2022/05/25 09:39:34;;;;;;;;;;;;;;;;;;5115459;28;19923;-65
2022/05/25 09:42:20;;;;;;;;;;;;;;;;;;5116010;28;20089;-67
2022/05/25 09:45:05;;;;;;;;;;;;;;;;;;5118112;28;20396;-67
2022/05/25 09:47:51;;;;;;;;;;;;;;;;;;5095138;28;19924;-66
2022/05/25 09:50:36;;;;;;;;;;;;;;;;;;5095056;28;19968;-62
2022/05/25 09:53:22;;;;;;;;;;;;;;;;;;5093882;28;19956;-62
2022/05/25 09:56:09;;;;;;;;;;;;;;;;;;5095109;28;20382;-63
2022/05/25 09:58:54;;;;;;;;;;;;;;;;;;5093800;28;20343;-63
2022/05/25 10:01:40;;;;;;;;;;;;;;;;;;5094872;28;19944;-63
2022/05/25 10:04:25;;;;;;;;;;;;;;;;;;5095058;28;19939;-64
2022/05/25 10:07:11;;;;;;;;;;;;;;;;;;5094716;28;19923;-66
2022/05/25 10:09:56;;;;;;;;;;;;;;;;;;5095251;28;19969;-67
2022/05/25 10:12:42;;;;;;;;;;;;;;;;;;5094680;28;20282;-68
2022/05/25 10:15:28;;;;;;;;;;;;;;;;;;5100109;28;19908;-68
2022/05/25 10:18:14;;;;;;;;;;;;;;;;;;5101271;28;19924;-68
2022/05/25 10:20:59;;;;;;;;;;;;;;;;;;5115029;28;19915;-68
2022/05/25 10:23:45;;;;;;;;;;;;;;;;;;5114263;28;19985;-67
2022/05/25 10:26:31;;;;;;;;;;;;;;;;;;5114166;28;19919;-66
2022/05/25 10:36:45;;;;;;;;;;;;;;;;;;5100060;28;19922;-78
2022/05/25 10:38:35;;;;;;;;;;;;;;;;;;5113980;28;19919;-76
2022/05/25 10:41:39;;;;;;;;;;;;;;;;;;5099773;28;19982;-77
2022/05/25 10:44:24;;;;;;;;;;;;;;;;;;5113743;28;20358;-67
2022/05/25 10:47:10;;;;;;;;;;;;;;;;;;5077503;28;19994;-76
2022/05/25 10:49:55;;;;;;;;;;;;;;;;;;5074584;28;19916;-75
2022/05/25 10:52:42;;;;;;;;;;;;;;;;;;5072584;28;19970;-75
2022/05/25 10:55:28;;;;;;;;;;;;;;;;;;5071329;28;20341;-75
2022/05/25 10:58:14;;;;;;;;;;;;;;;;;;5071010;28;19920;-73
2022/05/25 11:00:59;;;;;;;;;;;;;;;;;;5072601;28;19942;-76
2022/05/25 11:03:44;;;;;;;;;;;;;;;;;;5071870;28;19916;-73
2022/05/25 11:06:30;;;;;;;;;;;;;;;;;;5072217;28;20372;-67
2022/05/25 11:09:15;;;;;;;;;;;;;;;;;;5072081;28;19921;-68
2022/05/25 11:12:01;;;;;;;;;;;;;;;;;;5072300;28;20328;-67
2022/05/25 11:14:47;;;;;;;;;;;;;;;;;;5072417;28;20362;-68
2022/05/25 11:17:32;;;;;;;;;;;;;;;;;;5110596;28;20305;-68
2022/05/25 11:20:17;;;;;;;;;;;;;;;;;;5121117;28;19958;-68
2022/05/25 11:23:03;;;;;;;;;;;;;;;;;;5113240;28;19912;-63
2022/05/25 11:25:48;;;;;;;;;;;;;;;;;;5113029;28;19916;-63
2022/05/25 11:28:34;;;;;;;;;;;;;;;;;;5113101;28;20246;-63
2022/05/25 11:31:19;;;;;;;;;;;;;;;;;;5112810;28;19916;-63
2022/05/25 11:34:05;;;;;;;;;;;;;;;;;;5112771;28;19912;-64
2022/05/25 11:36:50;;;;;;;;;;;;;;;;;;5113002;28;19928;-63
2022/05/25 11:39:36;;;;;;;;;;;;;;;;;;5098754;28;19916;-66
2022/05/25 11:42:21;;;;;;;;;;;;;;;;;;5112654;28;19916;-69
2022/05/25 11:45:07;;;;;;;;;;;;;;;;;;5109262;28;20312;-69
2022/05/25 11:47:52;;;;;;;;;;;;;;;;;;5092884;28;20364;-69
2022/05/25 11:50:38;;;;;;;;;;;;;;;;;;5094948;28;19912;-68
2022/05/25 11:53:23;;;;;;;;;;;;;;;;;;5096156;28;20016;-70
2022/05/25 11:56:09;;;;;;;;;;;;;;;;;;5092548;28;20319;-75
2022/05/25 11:58:54;;;;;;;;;;;;;;;;;;5092990;28;20338;-67
2022/05/25 12:01:39;;;;;;;;;;;;;;;;;;5077326;28;19959;-66
2022/05/25 12:04:25;;;;;;;;;;;;;;;;;;5077599;28;20031;-65
2022/05/25 12:07:10;;;;;;;;;;;;;;;;;;5092438;28;19923;-66
2022/05/25 12:09:56;;;;;;;;;;;;;;;;;;5092546;28;20382;-65
2022/05/25 12:12:42;;;;;;;;;;;;;;;;;;5092660;28;19919;-65
2022/05/25 12:15:27;;;;;;;;;;;;;;;;;;5090795;28;19938;-67
2022/05/25 12:18:13;;;;;;;;;;;;;;;;;;5112088;28;19959;-69
2022/05/25 12:20:58;;;;;;;;;;;;;;;;;;5112374;28;20310;-68
2022/05/25 12:23:44;;;;;;;;;;;;;;;;;;5118633;28;19915;-69
2022/05/25 12:26:29;;;;;;;;;;;;;;;;;;5112319;28;20010;-69
2022/05/25 12:29:15;;;;;;;;;;;;;;;;;;5112189;28;20344;-68
2022/05/25 12:32:01;;;;;;;;;;;;;;;;;;5111811;28;19923;-68
2022/05/25 12:34:46;;;;;;;;;;;;;;;;;;5112264;28;20278;-70
2022/05/25 12:37:32;;;;;;;;;;;;;;;;;;5112154;28;20466;-63
2022/05/25 12:40:17;;;;;;;;;;;;;;;;;;5112202;28;20238;-63
2022/05/25 12:43:02;;;;;;;;;;;;;;;;;;5112591;28;20052;-64
2022/05/25 12:48:53;;;;;;;;;;;;;;;;;;5092221;28;20281;-63
2022/05/25 12:51:39;;;;;;;;;;;;;;;;;;5091678;28;19923;-67
2022/05/25 12:54:25;;;;;;;;;;;;;;;;;;5092134;28;20354;-67
2022/05/25 12:57:10;;;;;;;;;;;;;;;;;;5097431;28;19971;-66
2022/05/25 12:59:57;;;;;;;;;;;;;;;;;;5092098;28;20291;-66
2022/05/25 13:02:42;;;;;;;;;;;;;;;;;;5090797;28;20018;-67
2022/05/25 13:05:30;;;;;;;;;;;;;;;;;;5091906;28;19916;-68
2022/05/25 13:08:15;;;;;;;;;;;;;;;;;;5091018;28;19916;-67
2022/05/25 13:11:01;;;;;;;;;;;;;;;;;;5092218;28;19913;-64
2022/05/25 13:13:48;;;;;;;;;;;;;;;;;;5076979;28;19966;-70
2022/05/25 13:16:33;;;;;;;;;;;;;;;;;;5099910;28;19919;-68
2022/05/25 13:19:19;;;;;;;;;;;;;;;;;;5111364;28;19916;-69
2022/05/25 13:22:09;;;;;;;;;;;;;;;;;;5111598;28;20307;-69
2022/05/25 13:24:54;;;;;;;;;;;;;;;;;;5111538;28;19960;-68
2022/05/25 13:27:39;;;;;;;;;;;;;;;;;;5121005;28;20091;-68
2022/05/25 13:30:26;;;;;;;;;;;;;;;;;;5115847;28;19919;-69
2022/05/25 13:33:11;;;;;;;;;;;;;;;;;;5115071;28;19916;-67
2022/05/25 13:35:57;;;;;;;;;;;;;;;;;;5115402;28;19996;-67
2022/05/25 13:38:42;;;;;;;;;;;;;;;;;;5115217;28;19974;-67
2022/05/25 13:41:28;;;;;;;;;;;;;;;;;;5115294;28;20319;-66
2022/05/25 13:44:13;;;;;;;;;;;;;;;;;;5115177;28;19920;-66
2022/05/25 13:46:59;;;;;;;;;;;;;;;;;;5095890;28;19959;-63
2022/05/25 13:49:44;;;;;;;;;;;;;;;;;;5093701;28;19941;-79
2022/05/25 13:52:30;;;;;;;;;;;;;;;;;;5095164;28;20014;-78
2022/05/25 13:55:15;;;;;;;;;;;;;;;;;;5094744;28;19916;-79
2022/05/25 13:58:01;;;;;;;;;;;;;;;;;;5095016;28;19966;-78
2022/05/25 14:00:47;;;;;;;;;;;;;;;;;;5100891;28;20338;-79
2022/05/25 14:03:34;;;;;;;;;;;;;;;;;;5093576;28;19916;-79
2022/05/25 14:06:20;;;;;;;;;;;;;;;;;;5093634;28;19916;-67
2022/05/25 14:12:09;;;;;;;;;;;;;;;;;;5094590;28;20003;-69
2022/05/25 14:14:56;;;;;;;;;;;;;;;;;;5094715;28;19948;-68
2022/05/25 14:17:41;;;;;;;;;;;;;;;;;;5112047;28;19919;-68
2022/05/25 14:20:27;;;;;;;;;;;;;;;;;;5114134;28;20381;-70
2022/05/25 14:23:12;;;;;;;;;;;;;;;;;;5114434;28;19926;-79
2022/05/25 14:25:58;;;;;;;;;;;;;;;;;;5113731;28;19962;-70
2022/05/25 14:28:43;;;;;;;;;;;;;;;;;;5099736;28;19930;-69
2022/05/25 14:31:29;;;;;;;;;;;;;;;;;;5119476;28;20386;-68
2022/05/25 14:34:14;;;;;;;;;;;;;;;;;;5114498;28;19915;-68
2022/05/25 14:37:00;;;;;;;;;;;;;;;;;;5113699;28;20045;-68
2022/05/25 14:39:45;;;;;;;;;;;;;;;;;;5113307;28;19939;-68
2022/05/25 14:42:31;;;;;;;;;;;;;;;;;;5113500;28;20027;-80
2022/05/25 14:45:16;;;;;;;;;;;;;;;;;;5109296;28;20007;-75
2022/05/25 14:48:02;;;;;;;;;;;;;;;;;;5093946;28;19952;-73
2022/05/25 14:50:47;;;;;;;;;;;;;;;;;;5094097;28;20014;-74
2022/05/25 14:53:33;;;;;;;;;;;;;;;;;;5093991;28;20495;-74
2022/05/25 14:56:18;;;;;;;;;;;;;;;;;;5092664;28;20392;-75
2022/05/25 14:59:04;;;;;;;;;;;;;;;;;;5094026;28;19966;-74
2022/05/25 15:01:49;;;;;;;;;;;;;;;;;;5093955;28;19938;-75
2022/05/25 15:04:35;;;;;;;;;;;;;;;;;;5100496;28;20011;-68
2022/05/25 15:07:20;;;;;;;;;;;;;;;;;;5093501;28;20302;-67
2022/05/25 15:10:06;;;;;;;;;;;;;;;;;;5093564;28;19971;-68
2022/05/25 15:12:52;;;;;;;;;;;;;;;;;;5093857;28;19920;-68
2022/05/25 15:18:42;;;;;;;;;;;;;;;;;;5113109;28;20322;-67
2022/05/25 15:21:27;;;;;;;;;;;;;;;;;;5098945;28;19918;-68
2022/05/25 15:24:13;;;;;;;;;;;;;;;;;;5098849;28;19944;-66
2022/05/25 15:26:58;;;;;;;;;;;;;;;;;;5112991;28;19938;-60
2022/05/25 15:29:44;;;;;;;;;;;;;;;;;;5112923;28;19916;-67
2022/05/25 15:32:29;;;;;;;;;;;;;;;;;;5082898;28;19923;-67
2022/05/25 15:35:15;;;;;;;;;;;;;;;;;;5076332;28;19913;-66
2022/05/25 15:38:00;;;;;;;;;;;;;;;;;;5073892;28;20313;-76
2022/05/25 15:40:46;;;;;;;;;;;;;;;;;;5072306;28;20118;-67
2022/05/25 15:43:33;;;;;;;;;;;;;;;;;;5071548;28;20312;-68
2022/05/25 15:46:18;;;;;;;;;;;;;;;;;;5084518;28;19916;-66
2022/05/25 15:49:04;;;;;;;;;;;;;;;;;;5092699;28;19923;-68
2022/05/25 15:51:50;;;;;;;;;;;;;;;;;;5076985;28;19965;-68
2022/05/25 15:54:37;;;;;;;;;;;;;;;;;;5076987;28;20450;-69
2022/05/25 15:57:22;;;;;;;;;;;;;;;;;;5091736;28;19928;-69
2022/05/25 16:00:08;;;;;;;;;;;;;;;;;;5092869;28;19924;-68
2022/05/25 16:02:53;;;;;;;;;;;;;;;;;;5092687;28;19951;-68
2022/05/25 16:05:39;;;;;;;;;;;;;;;;;;5092622;28;19915;-70
2022/05/25 16:11:29;;;;;;;;;;;;;;;;;;5092620;28;19916;-68
2022/05/25 16:14:15;;;;;;;;;;;;;;;;;;5091189;28;19924;-70
2022/05/25 16:17:00;;;;;;;;;;;;;;;;;;5105499;28;19919;-67
2022/05/25 16:19:45;;;;;;;;;;;;;;;;;;5112277;28;19923;-67
2022/05/25 16:22:31;;;;;;;;;;;;;;;;;;5098191;28;19961;-67
2022/05/25 16:25:17;;;;;;;;;;;;;;;;;;5112314;28;20316;-67
2022/05/25 16:28:02;;;;;;;;;;;;;;;;;;5112218;28;20358;-67
2022/05/25 16:30:48;;;;;;;;;;;;;;;;;;5112156;28;19922;-66
2022/05/25 16:33:33;;;;;;;;;;;;;;;;;;5112095;28;19919;-69
2022/05/25 16:36:19;;;;;;;;;;;;;;;;;;5112161;28;19971;-74
2022/05/25 16:39:04;;;;;;;;;;;;;;;;;;5116660;28;19951;-75
2022/05/25 16:41:51;;;;;;;;;;;;;;;;;;5100448;28;19916;-75
2022/05/25 16:44:36;;;;;;;;;;;;;;;;;;5111839;28;19920;-75
2022/05/25 16:47:22;;;;;;;;;;;;;;;;;;5071306;28;19920;-75
2022/05/25 16:50:07;;;;;;;;;;;;;;;;;;5071825;28;20065;-75
2022/05/25 16:52:53;;;;;;;;;;;;;;;;;;5071933;28;19917;-81
2022/05/25 16:55:38;;;;;;;;;;;;;;;;;;5071815;28;19916;-66
2022/05/25 16:58:24;;;;;;;;;;;;;;;;;;5071599;28;19928;-66
2022/05/25 17:01:12;;;;;;;;;;;;;;;;;;5072427;28;19916;-66
2022/05/25 17:03:57;;;;;;;;;;;;;;;;;;5075361;28;19916;-66
2022/05/25 17:06:43;;;;;;;;;;;;;;;;;;5075556;28;19916;-66
2022/05/25 17:09:29;;;;;;;;;;;;;;;;;;5075221;28;19916;-69
2022/05/25 17:12:14;;;;;;;;;;;;;;;;;;5083671;28;19916;-75
2022/05/25 17:15:00;;;;;;;;;;;;;;;;;;5077676;28;19917;-75
2022/05/25 17:17:45;;;;;;;;;;;;;;;;;;5115099;28;20215;-75
2022/05/25 17:20:34;;;;;;;;;;;;;;;;;;5115514;28;19916;-75
2022/05/25 17:23:19;;;;;;;;;;;;;;;;;;5115826;28;19916;-74
2022/05/25 17:26:04;;;;;;;;;;;;;;;;;;5115036;28;19922;-74
2022/05/25 17:28:50;;;;;;;;;;;;;;;;;;5101306;28;20243;-68
2022/05/25 17:31:35;;;;;;;;;;;;;;;;;;5115040;28;19961;-74
2022/05/25 17:34:22;;;;;;;;;;;;;;;;;;5115170;28;20002;-75
2022/05/25 17:43:19;;;;;;;;;;;;;;;;;;5120222;28;20195;-74
2022/05/25 17:46:04;;;;;;;;;;;;;;;;;;5104818;28;20264;-62
2022/05/25 17:48:50;;;;;;;;;;;;;;;;;;5079576;28;19920;-64
2022/05/25 17:51:35;;;;;;;;;;;;;;;;;;5094930;28;19943;-63
2022/05/25 17:54:20;;;;;;;;;;;;;;;;;;5094753;28;20359;-64
2022/05/25 17:57:08;;;;;;;;;;;;;;;;;;5095035;28;19927;-63
2022/05/25 17:59:53;;;;;;;;;;;;;;;;;;5093483;28;19981;-63
2022/05/25 18:02:39;;;;;;;;;;;;;;;;;;5094669;28;19916;-64
2022/05/25 18:05:24;;;;;;;;;;;;;;;;;;5094599;28;19916;-64
2022/05/25 18:08:10;;;;;;;;;;;;;;;;;;5094456;28;19923;-67
2022/05/25 18:10:55;;;;;;;;;;;;;;;;;;5094879;28;20316;-66
2022/05/25 18:13:40;;;;;;;;;;;;;;;;;;5093577;28;19995;-66
2022/05/25 18:16:26;;;;;;;;;;;;;;;;;;5110847;28;19938;-67
2022/05/25 18:19:11;;;;;;;;;;;;;;;;;;5114188;28;19924;-66
2022/05/25 18:21:57;;;;;;;;;;;;;;;;;;5100096;28;19962;-67
2022/05/25 18:24:42;;;;;;;;;;;;;;;;;;5113923;28;20258;-63
2022/05/25 18:27:28;;;;;;;;;;;;;;;;;;5114034;28;19947;-67
2022/05/25 18:30:13;;;;;;;;;;;;;;;;;;5113933;28;19920;-69
2022/05/25 18:32:59;;;;;;;;;;;;;;;;;;5114338;28;19938;-66
2022/05/25 18:35:44;;;;;;;;;;;;;;;;;;5113847;28;19959;-69
2022/05/25 18:38:30;;;;;;;;;;;;;;;;;;5114057;28;19969;-68
2022/05/25 18:41:16;;;;;;;;;;;;;;;;;;5113860;28;19916;-68
2022/05/25 18:44:01;;;;;;;;;;;;;;;;;;5113779;28;19916;-67
2022/05/25 18:46:47;;;;;;;;;;;;;;;;;;5099561;28;19984;-67
2022/05/25 18:49:32;;;;;;;;;;;;;;;;;;5097112;28;20014;-64
2022/05/25 18:52:18;;;;;;;;;;;;;;;;;;5093686;28;19926;-65
2022/05/25 18:55:05;;;;;;;;;;;;;;;;;;5078272;28;19962;-65
2022/05/25 18:57:51;;;;;;;;;;;;;;;;;;5092596;28;20271;-66
2022/05/25 19:00:39;;;;;;;;;;;;;;;;;;5093623;28;20371;-71
2022/05/25 19:03:24;;;;;;;;;;;;;;;;;;5077538;28;20274;-73
2022/05/25 19:06:09;;;;;;;;;;;;;;;;;;5078019;28;19922;-74
2022/05/25 19:08:55;;;;;;;;;;;;;;;;;;5093452;28;19978;-74
2022/05/25 19:11:40;;;;;;;;;;;;;;;;;;5077925;28;19916;-75
2022/05/25 19:14:27;;;;;;;;;;;;;;;;;;5093483;28;19938;-74
2022/05/25 19:17:12;;;;;;;;;;;;;;;;;;5106981;28;19967;-74
2022/05/25 19:19:58;;;;;;;;;;;;;;;;;;5120942;28;20159;-66
2022/05/25 19:22:43;;;;;;;;;;;;;;;;;;5112900;28;20018;-66
2022/05/25 19:25:29;;;;;;;;;;;;;;;;;;5099771;28;19919;-68
2022/05/25 19:28:14;;;;;;;;;;;;;;;;;;5114012;28;20334;-66
2022/05/25 19:31:00;;;;;;;;;;;;;;;;;;5112967;28;19922;-69
2022/05/25 19:33:46;;;;;;;;;;;;;;;;;;5112579;28;19911;-68